createdAt,value
2022-12-11T00:02:13.224Z,98082.69
2022-12-11T00:04:40.814Z,98079.22
2022-12-11T00:07:07.686Z,98081.84
2022-12-11T00:09:35.037Z,98089.81
2022-12-11T00:12:02.539Z,98086.78
2022-12-11T00:14:29.781Z,98085.16
2022-12-11T00:16:58.134Z,98087.25
2022-12-11T00:19:25.399Z,98081.50
2022-12-11T00:21:52.296Z,98084.31
2022-12-11T00:24:19.884Z,98074.13
2022-12-11T00:26:46.788Z,98079.97
2022-12-11T00:29:14.710Z,98077.50
2022-12-11T00:31:42.206Z,98075.72
2022-12-11T00:34:12.118Z,98080.03
2022-12-11T00:36:39.843Z,98073.91
2022-12-11T00:39:07.288Z,98091.44
2022-12-11T00:41:36.164Z,98091.63
2022-12-11T00:44:09.954Z,98086.91
2022-12-11T00:46:39.459Z,98103.66
2022-12-11T00:49:09.403Z,98115.38
2022-12-11T00:51:39.816Z,98116.00
2022-12-11T00:54:07.436Z,98120.31
2022-12-11T00:56:34.385Z,98116.63
2022-12-11T00:59:04.269Z,98101.06
2022-12-11T01:01:59.989Z,98133.00
2022-12-11T01:04:27.541Z,98137.25
2022-12-11T01:06:56.032Z,98133.38
2022-12-11T01:09:41.823Z,98143.22
2022-12-11T01:12:11.866Z,98156.00
2022-12-11T01:14:39.707Z,98169.75
2022-12-11T01:17:06.586Z,98166.31
2022-12-11T01:19:33.783Z,98176.81
2022-12-11T01:22:02.028Z,98185.47
2022-12-11T01:24:29.507Z,98178.75
2022-12-11T01:26:56.471Z,98178.31
2022-12-11T01:29:23.749Z,98198.59
2022-12-11T01:31:50.707Z,98195.53
2022-12-11T01:34:17.936Z,98189.19
2022-12-11T01:36:45.013Z,98188.97
2022-12-11T01:39:15.910Z,98165.66
2022-12-11T01:41:44.676Z,98155.22
2022-12-11T01:44:26.954Z,98160.72
2022-12-11T01:46:55.532Z,98146.81
2022-12-11T01:49:27.262Z,98147.66
2022-12-11T01:51:59.259Z,98154.38
2022-12-11T01:54:29.638Z,98152.75
2022-12-11T01:57:00.381Z,98159.72
2022-12-11T01:59:58.985Z,98171.31
2022-12-11T02:02:29.465Z,98160.88
2022-12-11T02:04:57.239Z,98163.09
2022-12-11T02:07:24.294Z,98174.31
2022-12-11T02:09:55.255Z,98177.94
2022-12-11T02:12:30.628Z,98187.94
2022-12-11T02:15:05.521Z,98193.16
2022-12-11T02:17:38.955Z,98175.53
2022-12-11T02:20:12.194Z,98192.59
2022-12-11T02:22:58.924Z,98195.66
2022-12-11T02:25:33.022Z,98183.16
2022-12-11T02:28:21.173Z,98181.88
2022-12-11T02:30:52.534Z,98188.06
2022-12-11T02:33:26.141Z,98193.41
2022-12-11T02:35:54.476Z,98201.66
2022-12-11T02:38:27.148Z,98201.72
2022-12-11T02:40:58.194Z,98214.97
2022-12-11T02:43:31.384Z,98206.69
2022-12-11T02:46:03.135Z,98210.78
2022-12-11T02:48:30.454Z,98228.03
2022-12-11T02:50:59.585Z,98211.72
2022-12-11T02:53:31.244Z,98219.66
2022-12-11T02:56:03.765Z,98216.81
2022-12-11T02:58:34.369Z,98230.78
2022-12-11T03:01:01.728Z,98225.28
2022-12-11T03:03:30.844Z,98226.84
2022-12-11T03:05:58.098Z,98236.44
2022-12-11T03:08:29.304Z,98244.19
2022-12-11T03:10:56.728Z,98265.00
2022-12-11T03:13:23.767Z,98273.94
2022-12-11T03:16:05.012Z,98280.13
2022-12-11T03:18:36.339Z,98299.88
2022-12-11T03:21:07.876Z,98303.63
2022-12-11T03:23:45.719Z,98319.47
2022-12-11T03:26:15.197Z,98329.06
2022-12-11T03:28:44.567Z,98341.66
2022-12-11T03:31:17.499Z,98334.47
2022-12-11T03:33:48.126Z,98347.41
2022-12-11T03:36:21.208Z,98351.06
2022-12-11T03:38:52.814Z,98370.41
2022-12-11T03:41:24.812Z,98372.06
2022-12-11T03:43:54.480Z,98390.72
2022-12-11T03:46:28.129Z,98385.47
2022-12-11T03:48:59.298Z,98404.75
2022-12-11T03:51:29.086Z,98420.75
2022-12-11T03:53:56.424Z,98433.63
2022-12-11T03:56:25.594Z,98446.84
2022-12-11T03:58:52.688Z,98457.88
2022-12-11T04:01:20.315Z,98471.22
2022-12-11T04:03:48.829Z,98479.44
2022-12-11T04:06:16.103Z,98492.63
2022-12-11T04:08:43.013Z,98489.66
2022-12-11T04:11:29.299Z,98491.31
2022-12-11T04:14:16.165Z,98505.16
2022-12-11T04:16:45.022Z,98519.34
2022-12-11T04:19:31.689Z,98523.38
2022-12-11T04:22:17.518Z,98537.44
2022-12-11T04:24:44.453Z,98539.22
2022-12-11T04:27:11.701Z,98548.09
2022-12-11T04:29:38.687Z,98548.00
2022-12-11T04:32:05.996Z,98551.13
2022-12-11T04:34:34.347Z,98565.47
2022-12-11T04:37:03.789Z,98581.97
2022-12-11T04:39:30.679Z,98601.59
2022-12-11T04:41:58.944Z,98618.53
2022-12-11T04:44:25.988Z,98631.06
2022-12-11T04:46:53.132Z,98620.41
2022-12-11T04:49:20.005Z,98654.28
2022-12-11T04:51:48.968Z,98663.59
2022-12-11T04:54:16.521Z,98663.78
2022-12-11T04:56:43.652Z,98665.59
2022-12-11T04:59:11.211Z,98660.28
2022-12-11T05:01:43.235Z,98675.41
2022-12-11T05:04:10.202Z,98691.69
2022-12-11T05:06:40.094Z,98692.06
2022-12-11T05:09:10.975Z,98702.59
2022-12-11T05:11:38.472Z,98710.00
2022-12-11T05:14:05.469Z,98710.13
2022-12-11T05:16:32.628Z,98726.66
2022-12-11T05:18:59.542Z,98731.75
2022-12-11T05:21:30.316Z,98743.31
2022-12-11T05:24:01.947Z,98757.47
2022-12-11T05:26:30.636Z,98774.91
2022-12-11T05:28:57.667Z,98772.28
2022-12-11T05:31:29.673Z,98772.28
2022-12-11T05:33:56.615Z,98776.03
2022-12-11T05:36:26.467Z,98780.63
2022-12-11T05:38:53.428Z,98782.63
2022-12-11T05:41:23.017Z,98789.16
2022-12-11T05:43:52.026Z,98794.81
2022-12-11T05:46:22.619Z,98805.53
2022-12-11T05:48:51.009Z,98813.16
2022-12-11T05:51:18.770Z,98807.06
2022-12-11T05:53:49.173Z,98813.84
2022-12-11T05:56:17.917Z,98824.44
2022-12-11T05:58:45.841Z,98838.91
2022-12-11T06:01:20.887Z,98823.72
2022-12-11T06:03:48.458Z,98837.56
2022-12-11T06:06:15.952Z,98837.34
2022-12-11T06:08:43.151Z,98834.41
2022-12-11T06:11:11.977Z,98837.41
2022-12-11T06:13:39.155Z,98838.03
2022-12-11T06:16:07.779Z,98847.44
2022-12-11T06:18:44.308Z,98855.50
2022-12-11T06:21:14.425Z,98872.34
2022-12-11T06:23:42.228Z,98867.81
2022-12-11T06:26:12.379Z,98877.94
2022-12-11T06:28:39.398Z,98889.16
2022-12-11T06:31:17.274Z,98888.31
2022-12-11T06:33:46.408Z,98891.78
2022-12-11T06:36:17.023Z,98896.31
2022-12-11T06:38:47.868Z,98904.50
2022-12-11T06:41:20.200Z,98898.34
2022-12-11T06:43:49.271Z,98918.16
2022-12-11T06:46:20.252Z,98926.59
2022-12-11T06:48:50.860Z,98918.44
2022-12-11T06:51:20.065Z,98936.47
2022-12-11T06:53:52.047Z,98952.09
2022-12-11T06:56:19.754Z,98943.16
2022-12-11T06:58:46.679Z,98950.53
2022-12-11T07:01:16.453Z,98954.75
2022-12-11T07:03:44.384Z,98951.50
2022-12-11T07:06:12.974Z,98976.72
2022-12-11T07:08:40.040Z,98986.75
2022-12-11T07:11:09.533Z,98998.69
2022-12-11T07:13:44.274Z,99002.19
2022-12-11T07:16:15.624Z,99004.00
2022-12-11T07:18:49.238Z,99013.69
2022-12-11T07:21:21.377Z,99006.41
2022-12-11T07:23:49.199Z,99019.91
2022-12-11T07:26:21.459Z,99030.63
2022-12-11T07:28:50.420Z,99026.63
2022-12-11T07:31:22.430Z,99013.22
2022-12-11T07:33:53.963Z,99042.22
2022-12-11T07:36:24.516Z,99044.59
2022-12-11T07:38:54.006Z,99047.41
2022-12-11T07:41:23.371Z,99049.53
2022-12-11T07:43:50.289Z,99056.13
2022-12-11T07:46:21.292Z,99044.53
2022-12-11T07:48:49.170Z,99046.94
2022-12-11T07:51:18.320Z,99033.03
2022-12-11T07:53:48.775Z,99047.91
2022-12-11T07:56:16.347Z,99052.09
2022-12-11T07:58:44.074Z,99048.19
2022-12-11T08:01:14.061Z,99073.03
2022-12-11T08:03:41.137Z,99084.97
2022-12-11T08:06:08.965Z,99081.75
2022-12-11T08:08:35.979Z,99095.44
2022-12-11T08:11:07.348Z,99101.16
2022-12-11T08:13:34.333Z,99107.13
2022-12-11T08:16:04.436Z,99109.03
2022-12-11T08:18:31.419Z,99115.66
2022-12-11T08:20:58.543Z,99129.84
2022-12-11T08:23:25.528Z,99113.81
2022-12-11T08:25:52.656Z,99136.59
2022-12-11T08:28:23.575Z,99144.47
2022-12-11T08:30:55.878Z,99148.41
2022-12-11T08:33:22.794Z,99152.47
2022-12-11T08:35:49.995Z,99155.13
2022-12-11T08:38:19.679Z,99155.16
2022-12-11T08:40:50.962Z,99159.06
2022-12-11T08:43:23.839Z,99157.63
2022-12-11T08:45:51.374Z,99171.81
2022-12-11T08:48:18.276Z,99171.19
2022-12-11T08:50:45.376Z,99163.34
2022-12-11T08:53:12.472Z,99163.88
2022-12-11T08:55:41.629Z,99176.59
2022-12-11T08:58:08.645Z,99181.94
2022-12-11T09:00:38.295Z,99188.22
2022-12-11T09:03:08.473Z,99192.84
2022-12-11T09:05:40.077Z,99196.03
2022-12-11T09:08:07.253Z,99187.28
2022-12-11T09:10:34.395Z,99184.00
2022-12-11T09:13:01.306Z,99190.03
2022-12-11T09:15:28.553Z,99189.09
2022-12-11T09:17:56.820Z,99183.53
2022-12-11T09:20:24.090Z,99183.09
2022-12-11T09:22:51.071Z,99180.22
2022-12-11T09:25:20.324Z,99180.97
2022-12-11T09:27:47.249Z,99182.97
2022-12-11T09:30:15.542Z,99188.88
2022-12-11T09:32:42.439Z,99190.81
2022-12-11T09:35:11.498Z,99175.03
2022-12-11T09:37:39.127Z,99169.22
2022-12-11T09:40:08.021Z,99175.22
2022-12-11T09:42:49.655Z,99184.31
2022-12-11T09:45:17.752Z,99171.72
2022-12-11T09:47:50.112Z,99170.38
2022-12-11T09:50:22.862Z,99161.50
2022-12-11T09:53:03.678Z,99165.06
2022-12-11T09:55:43.302Z,99157.56
2022-12-11T09:58:20.880Z,99155.31
2022-12-11T10:00:52.945Z,99153.13
2022-12-11T10:03:41.014Z,99148.94
2022-12-11T10:06:17.800Z,99158.59
2022-12-11T10:08:53.870Z,99168.47
2022-12-11T10:11:56.177Z,99165.09
2022-12-11T10:14:36.393Z,99155.25
2022-12-11T10:17:10.045Z,99156.50
2022-12-11T10:19:37.418Z,99159.09
2022-12-11T10:22:14.480Z,99163.28
2022-12-11T10:27:36.009Z,99156.16
2022-12-11T10:30:14.969Z,99167.44
2022-12-11T10:32:51.158Z,99164.66
2022-12-11T10:35:27.047Z,99166.66
2022-12-11T10:38:01.576Z,99163.56
2022-12-11T10:40:30.771Z,99154.44
2022-12-11T10:42:58.289Z,99157.75
2022-12-11T10:45:25.237Z,99158.88
2022-12-11T10:48:02.574Z,99173.72
2022-12-11T10:50:29.610Z,99176.81
2022-12-11T10:52:58.496Z,99181.69
2022-12-11T10:55:28.453Z,99168.56
2022-12-11T10:58:00.546Z,99183.75
2022-12-11T11:00:34.242Z,99187.97
2022-12-11T11:03:02.749Z,99186.19
2022-12-11T11:05:34.222Z,99182.94
2022-12-11T11:08:15.211Z,99171.69
2022-12-11T11:10:53.938Z,99175.44
2022-12-11T11:13:23.359Z,99172.53
2022-12-11T11:16:00.418Z,99176.88
2022-12-11T11:18:30.329Z,99185.75
2022-12-11T11:20:57.582Z,99184.28
2022-12-11T11:23:27.206Z,99189.66
2022-12-11T11:25:57.742Z,99183.84
2022-12-11T11:28:28.529Z,99181.78
2022-12-11T11:30:59.824Z,99178.69
2022-12-11T11:33:31.435Z,99176.03
2022-12-11T11:36:01.588Z,99176.56
2022-12-11T11:38:34.479Z,99181.25
2022-12-11T11:41:15.104Z,99180.38
2022-12-11T11:43:46.548Z,99187.22
2022-12-11T11:46:19.198Z,99180.31
2022-12-11T11:48:54.054Z,99173.66
2022-12-11T11:51:25.806Z,99166.34
2022-12-11T11:53:58.292Z,99179.13
2022-12-11T11:56:27.701Z,99170.16
2022-12-11T11:59:03.180Z,99177.63
2022-12-11T12:01:30.913Z,99175.13
2022-12-11T12:03:58.929Z,99178.75
2022-12-11T12:06:34.832Z,99177.22
2022-12-11T12:09:17.770Z,99185.13
2022-12-11T12:11:52.473Z,99183.16
2022-12-11T12:17:22.500Z,99176.53
2022-12-11T12:20:00.642Z,99184.16
2022-12-11T12:22:41.658Z,99189.41
2022-12-11T12:25:21.885Z,99197.31
2022-12-11T12:27:59.263Z,99207.72
2022-12-11T12:30:30.410Z,99213.84
2022-12-11T12:33:10.866Z,99212.31
2022-12-11T12:35:41.538Z,99217.16
2022-12-11T12:38:17.451Z,99215.09
2022-12-11T12:41:00.093Z,99220.09
2022-12-11T12:43:43.527Z,99226.72
2022-12-11T12:46:21.360Z,99226.16
2022-12-11T12:48:51.057Z,99230.06
2022-12-11T12:51:18.980Z,99230.47
2022-12-11T12:53:53.878Z,99240.03
2022-12-11T12:56:23.973Z,99223.66
2022-12-11T12:58:50.895Z,99225.06
2022-12-11T13:01:21.995Z,99220.97
2022-12-11T13:03:56.567Z,99213.22
2022-12-11T13:06:32.920Z,99225.44
2022-12-11T13:09:12.391Z,99232.09
2022-12-11T13:11:41.176Z,99231.88
2022-12-11T13:14:27.062Z,99235.63
2022-12-11T13:17:06.896Z,99232.97
2022-12-11T13:19:40.646Z,99253.66
2022-12-11T13:22:24.113Z,99258.25
2022-12-11T13:24:59.796Z,99261.97
2022-12-11T13:27:37.973Z,99265.59
2022-12-11T13:30:07.997Z,99265.63
2022-12-11T13:32:35.329Z,99261.06
2022-12-11T13:35:07.581Z,99277.59
2022-12-11T13:37:39.429Z,99268.84
2022-12-11T13:40:10.084Z,99270.50
2022-12-11T13:42:48.084Z,99279.09
2022-12-11T13:45:22.002Z,99287.97
2022-12-11T13:47:50.014Z,99292.31
2022-12-11T13:50:24.123Z,99295.91
2022-12-11T13:52:55.445Z,99294.09
2022-12-11T13:55:25.303Z,99295.63
2022-12-11T13:57:53.973Z,99294.38
2022-12-11T14:00:23.817Z,99297.84
2022-12-11T14:02:53.675Z,99314.88
2022-12-11T14:05:21.575Z,99310.75
2022-12-11T14:07:50.833Z,99316.97
2022-12-11T14:10:22.863Z,99313.94
2022-12-11T14:12:56.355Z,99312.53
2022-12-11T14:15:23.883Z,99324.84
2022-12-11T14:17:52.110Z,99321.66
2022-12-11T14:20:21.873Z,99318.91
2022-12-11T14:22:49.044Z,99331.53
2022-12-11T14:25:24.911Z,99330.28
2022-12-11T14:27:55.396Z,99319.88
2022-12-11T14:30:24.932Z,99333.75
2022-12-11T14:32:56.855Z,99333.06
2022-12-11T14:35:27.781Z,99335.41
2022-12-11T14:37:57.108Z,99339.03
2022-12-11T14:40:28.488Z,99345.00
2022-12-11T14:43:01.288Z,99348.88
2022-12-11T14:45:36.214Z,99344.84
2022-12-11T14:48:07.975Z,99343.31
2022-12-11T14:50:44.710Z,99347.06
2022-12-11T14:53:17.624Z,99344.44
2022-12-11T14:55:47.223Z,99332.19
2022-12-11T14:58:19.651Z,99333.34
2022-12-11T15:00:57.744Z,99338.34
2022-12-11T15:03:29.818Z,99342.09
2022-12-11T15:05:58.330Z,99341.41
2022-12-11T15:08:27.709Z,99343.47
2022-12-11T15:11:01.121Z,99349.94
2022-12-11T15:13:30.423Z,99346.75
2022-12-11T15:15:57.552Z,99348.84
2022-12-11T15:18:27.709Z,99356.22
2022-12-11T15:20:58.923Z,99362.03
2022-12-11T15:23:26.947Z,99368.38
2022-12-11T15:25:56.822Z,99368.22
2022-12-11T15:28:27.040Z,99365.72
2022-12-11T15:30:59.102Z,99362.69
2022-12-11T15:33:32.564Z,99379.38
2022-12-11T15:36:03.393Z,99375.88
2022-12-11T15:38:36.696Z,99368.13
2022-12-11T15:41:04.567Z,99374.22
2022-12-11T15:43:36.085Z,99367.19
2022-12-11T15:46:05.665Z,99368.56
2022-12-11T15:48:33.091Z,99375.66
2022-12-11T15:51:05.799Z,99367.31
2022-12-11T15:53:32.926Z,99361.19
2022-12-11T15:56:00.255Z,99368.81
2022-12-11T15:58:29.030Z,99365.63
2022-12-11T16:00:57.405Z,99368.81
2022-12-11T16:03:26.081Z,99373.78
2022-12-11T16:05:53.747Z,99374.75
2022-12-11T16:08:22.339Z,99378.25
2022-12-11T16:10:51.477Z,99384.47
2022-12-11T16:13:18.803Z,99383.59
2022-12-11T16:15:47.492Z,99375.00
2022-12-11T16:18:16.967Z,99388.41
2022-12-11T16:20:45.543Z,99386.31
2022-12-11T16:23:14.334Z,99391.97
2022-12-11T16:25:42.466Z,99380.88
2022-12-11T16:28:12.772Z,99371.31
2022-12-11T16:30:39.983Z,99373.69
2022-12-11T16:33:12.326Z,99380.75
2022-12-11T16:35:40.022Z,99378.66
2022-12-11T16:38:10.023Z,99381.69
2022-12-11T16:40:37.737Z,99370.84
2022-12-11T16:43:05.480Z,99371.00
2022-12-11T16:45:33.248Z,99371.69
2022-12-11T16:48:04.059Z,99377.38
2022-12-11T16:50:32.159Z,99373.50
2022-12-11T16:52:59.493Z,99370.06
2022-12-11T16:55:27.864Z,99386.09
2022-12-11T16:57:55.487Z,99371.00
2022-12-11T17:00:22.729Z,99379.56
2022-12-11T17:02:50.084Z,99369.75
2022-12-11T17:05:17.699Z,99375.84
2022-12-11T17:07:45.324Z,99376.94
2022-12-11T17:10:12.537Z,99374.56
2022-12-11T17:12:41.215Z,99371.81
2022-12-11T17:15:08.590Z,99372.91
2022-12-11T17:17:35.880Z,99376.22
2022-12-11T17:20:02.844Z,99378.00
2022-12-11T17:22:30.117Z,99382.56
2022-12-11T17:24:57.169Z,99377.16
2022-12-11T17:27:24.419Z,99378.38
2022-12-11T17:29:52.745Z,99374.09
2022-12-11T17:32:19.977Z,99380.31
2022-12-11T17:34:49.767Z,99388.06
2022-12-11T17:37:17.351Z,99382.09
2022-12-11T17:39:44.823Z,99379.41
2022-12-11T17:42:12.050Z,99380.00
2022-12-11T17:44:39.106Z,99380.84
2022-12-11T17:47:10.801Z,99382.78
2022-12-11T17:49:38.266Z,99386.78
2022-12-11T17:52:05.439Z,99398.69
2022-12-11T17:54:32.528Z,99406.19
2022-12-11T17:56:59.804Z,99401.22
2022-12-11T17:59:26.728Z,99404.56
2022-12-11T18:01:54.184Z,99402.19
2022-12-11T18:04:22.591Z,99401.22
2022-12-11T18:06:49.815Z,99410.75
2022-12-11T18:09:16.799Z,99409.91
2022-12-11T18:11:44.124Z,99415.72
2022-12-11T18:14:16.759Z,99415.63
2022-12-11T18:16:44.576Z,99421.56
2022-12-11T18:19:12.005Z,99426.84
2022-12-11T18:21:43.695Z,99419.06
2022-12-11T18:24:10.866Z,99429.81
2022-12-11T18:26:38.222Z,99419.84
2022-12-11T18:29:05.420Z,99429.09
2022-12-11T18:31:36.306Z,99427.72
2022-12-11T18:34:06.340Z,99436.03
2022-12-11T18:36:34.272Z,99435.66
2022-12-11T18:39:05.891Z,99428.59
2022-12-11T18:41:35.831Z,99426.34
2022-12-11T18:44:09.368Z,99431.03
2022-12-11T18:46:37.295Z,99431.69
2022-12-11T18:49:04.939Z,99426.28
2022-12-11T18:51:32.076Z,99426.28
2022-12-11T18:53:59.095Z,99426.66
2022-12-11T18:56:27.642Z,99420.97
2022-12-11T18:58:54.951Z,99424.84
2022-12-11T19:01:24.249Z,99419.94
2022-12-11T19:03:56.337Z,99428.97
2022-12-11T19:06:30.012Z,99419.94
2022-12-11T19:08:57.305Z,99432.88
2022-12-11T19:11:26.389Z,99437.16
2022-12-11T19:13:58.655Z,99443.63
2022-12-11T19:16:29.746Z,99448.22
2022-12-11T19:18:58.829Z,99446.78
2022-12-11T19:21:27.188Z,99452.22
2022-12-11T19:23:54.376Z,99452.50
2022-12-11T19:26:23.542Z,99454.56
2022-12-11T19:28:51.408Z,99435.56
2022-12-11T19:31:22.731Z,99438.09
2022-12-11T19:33:49.957Z,99453.47
2022-12-11T19:36:20.904Z,99454.97
2022-12-11T19:38:48.054Z,99449.41
2022-12-11T19:41:17.673Z,99466.00
2022-12-11T19:43:47.247Z,99464.06
2022-12-11T19:46:15.845Z,99459.94
2022-12-11T19:48:44.242Z,99463.50
2022-12-11T19:51:14.213Z,99471.78
2022-12-11T19:53:42.432Z,99475.50
2022-12-11T19:56:10.023Z,99466.66
2022-12-11T19:58:37.671Z,99475.38
2022-12-11T20:01:06.000Z,99473.72
2022-12-11T20:03:33.442Z,99476.19
2022-12-11T20:06:03.434Z,99470.00
2022-12-11T20:08:46.442Z,99471.09
2022-12-11T20:11:18.359Z,99479.44
2022-12-11T20:13:45.957Z,99474.38
2022-12-11T20:16:13.563Z,99470.25
2022-12-11T20:18:41.445Z,99472.19
2022-12-11T20:21:14.495Z,99472.06
2022-12-11T20:23:42.066Z,99475.97
2022-12-11T20:26:10.413Z,99485.22
2022-12-11T20:28:37.599Z,99485.34
2022-12-11T20:31:06.374Z,99489.75
2022-12-11T20:33:33.605Z,99482.25
2022-12-11T20:36:00.727Z,99491.44
2022-12-11T20:38:34.272Z,99497.81
2022-12-11T20:41:01.948Z,99500.28
2022-12-11T20:43:28.868Z,99504.44
2022-12-11T20:45:56.148Z,99494.78
2022-12-11T20:48:23.638Z,99497.81
2022-12-11T20:50:50.919Z,99501.53
2022-12-11T20:53:17.968Z,99499.47
2022-12-11T20:55:46.596Z,99492.16
2022-12-11T20:58:13.459Z,99497.53
2022-12-11T21:00:40.779Z,99499.06
2022-12-11T21:03:07.737Z,99491.06
2022-12-11T21:05:39.899Z,99486.75
2022-12-11T21:08:06.942Z,99492.38
2022-12-11T21:10:34.834Z,99499.19
2022-12-11T21:13:03.150Z,99492.38
2022-12-11T21:15:30.361Z,99496.94
2022-12-11T21:17:57.459Z,99500.66
2022-12-11T21:20:24.642Z,99509.03
2022-12-11T21:22:51.595Z,99503.38
2022-12-11T21:25:19.193Z,99495.34
2022-12-11T21:27:46.082Z,99503.69
2022-12-11T21:30:15.206Z,99496.63
2022-12-11T21:32:42.176Z,99488.28
2022-12-11T21:35:10.656Z,99503.69
2022-12-11T21:37:38.071Z,99502.16
2022-12-11T21:40:06.427Z,99505.03
2022-12-11T21:42:33.395Z,99520.81
2022-12-11T21:47:49.469Z,99524.19
2022-12-11T21:50:17.255Z,99523.91
2022-12-11T21:52:44.518Z,99519.03
2022-12-11T21:55:12.549Z,99513.13
2022-12-11T21:57:39.732Z,99533.66
2022-12-11T22:00:09.370Z,99535.06
2022-12-11T22:02:40.787Z,99543.91
2022-12-11T22:05:12.572Z,99540.84
2022-12-11T22:07:39.681Z,99549.00
2022-12-11T22:10:07.654Z,99553.16
2022-12-11T22:12:34.504Z,99550.66
2022-12-11T22:15:01.835Z,99541.72
2022-12-11T22:17:28.854Z,99555.69
2022-12-11T22:19:56.196Z,99565.03
2022-12-11T22:22:24.479Z,99567.44
2022-12-11T22:24:51.748Z,99564.25
2022-12-11T22:27:23.446Z,99568.28
2022-12-11T22:29:51.266Z,99562.97
2022-12-11T22:32:18.172Z,99564.31
2022-12-11T22:34:45.346Z,99559.28
2022-12-11T22:37:12.731Z,99561.22
2022-12-11T22:39:42.395Z,99554.28
2022-12-11T22:42:15.733Z,99555.25
2022-12-11T22:44:43.035Z,99551.66
2022-12-11T22:47:09.880Z,99558.19
2022-12-11T22:49:37.051Z,99560.72
2022-12-11T22:52:04.468Z,99565.13
2022-12-11T22:54:31.755Z,99563.06
2022-12-11T22:56:59.998Z,99563.66
2022-12-11T22:59:27.108Z,99556.03
2022-12-11T23:01:54.076Z,99565.59
2022-12-11T23:04:21.603Z,99560.72
2022-12-11T23:06:48.505Z,99561.78
2022-12-11T23:09:15.889Z,99568.13
2022-12-11T23:11:43.461Z,99568.97
2022-12-11T23:14:16.026Z,99561.66
2022-12-11T23:16:44.052Z,99557.81
2022-12-11T23:19:12.049Z,99560.31
2022-12-11T23:21:39.265Z,99560.44
2022-12-11T23:24:07.640Z,99557.22
2022-12-11T23:26:34.763Z,99560.56
2022-12-11T23:29:02.205Z,99564.03
2022-12-11T23:31:30.770Z,99560.44
2022-12-11T23:33:58.215Z,99563.72
2022-12-11T23:36:26.124Z,99576.88
2022-12-11T23:38:55.057Z,99584.03
2022-12-11T23:41:22.984Z,99574.59
2022-12-11T23:43:50.527Z,99577.94
2022-12-11T23:46:20.703Z,99575.53
2022-12-11T23:48:49.825Z,99583.94
2022-12-11T23:51:19.021Z,99583.59
2022-12-11T23:53:47.067Z,99599.59
2022-12-11T23:56:16.446Z,99599.47
2022-12-11T23:58:44.304Z,99587.28
